createdAt,value
2022-08-11T00:00:12.575Z,23.33
2022-08-11T00:02:46.885Z,22.93
2022-08-11T00:05:17.579Z,23.03
2022-08-11T00:07:53.880Z,22.85
2022-08-11T00:10:23.958Z,23.05
2022-08-11T00:13:00.451Z,22.89
2022-08-11T00:15:30.239Z,22.80
2022-08-11T00:18:00.600Z,23.03
2022-08-11T00:20:37.161Z,22.93
2022-08-11T00:23:08.939Z,22.78
2022-08-11T00:25:42.269Z,23.02
2022-08-11T00:28:27.558Z,22.86
2022-08-11T00:30:58.828Z,23.38
2022-08-11T00:33:44.085Z,23.22
2022-08-11T00:36:16.124Z,22.81
2022-08-11T00:38:46.129Z,22.72
2022-08-11T00:41:35.266Z,22.36
2022-08-11T00:44:21.879Z,22.61
2022-08-11T00:47:19.337Z,22.81
2022-08-11T00:50:25.650Z,22.82
2022-08-11T00:53:31.079Z,22.39
2022-08-11T00:56:11.810Z,22.65
2022-08-11T00:58:58.328Z,22.35
2022-08-11T01:01:38.918Z,22.48
2022-08-11T01:04:09.680Z,22.83
2022-08-11T01:06:59.978Z,22.02
2022-08-11T01:09:52.728Z,22.60
2022-08-11T01:12:40.428Z,22.49
2022-08-11T01:15:26.967Z,22.25
2022-08-11T01:18:22.869Z,22.19
2022-08-11T01:21:14.449Z,22.40
2022-08-11T01:24:13.309Z,22.23
2022-08-11T01:26:44.098Z,22.37
2022-08-11T01:29:49.620Z,22.46
2022-08-11T01:32:51.470Z,22.13
2022-08-11T01:35:47.278Z,22.53
2022-08-11T01:38:52.878Z,22.84
2022-08-11T01:41:52.858Z,22.67
2022-08-11T01:44:38.981Z,21.99
2022-08-11T01:47:54.276Z,22.13
2022-08-11T01:50:31.728Z,22.62
2022-08-11T01:53:27.839Z,22.16
2022-08-11T01:56:23.207Z,22.48
2022-08-11T01:59:03.148Z,22.18
2022-08-11T02:01:36.839Z,22.15
2022-08-11T02:04:26.648Z,22.60
2022-08-11T02:07:09.045Z,22.14
2022-08-11T02:09:55.491Z,22.17
2022-08-11T02:12:53.779Z,22.70
2022-08-11T02:15:39.302Z,22.47
2022-08-11T02:18:14.801Z,21.81
2022-08-11T02:21:10.136Z,22.10
2022-08-11T02:24:06.566Z,21.87
2022-08-11T02:26:41.847Z,21.68
2022-08-11T02:29:24.832Z,22.15
2022-08-11T02:32:45.169Z,22.16
2022-08-11T02:38:06.269Z,22.20
2022-08-11T02:40:49.078Z,22.67
2022-08-11T02:43:29.008Z,22.47
2022-08-11T02:46:18.727Z,22.16
2022-08-11T02:49:19.258Z,22.09
2022-08-11T02:52:03.650Z,22.04
2022-08-11T02:54:45.520Z,22.37
2022-08-11T02:57:19.199Z,22.49
2022-08-11T02:59:55.668Z,21.98
2022-08-11T03:02:32.303Z,21.84
2022-08-11T03:05:17.172Z,21.59
2022-08-11T03:07:58.900Z,21.36
2022-08-11T03:10:41.649Z,21.45
2022-08-11T03:13:38.628Z,21.48
2022-08-11T03:16:43.559Z,21.44
2022-08-11T03:19:16.563Z,21.38
2022-08-11T03:22:22.928Z,21.01
2022-08-11T03:25:04.365Z,21.40
2022-08-11T03:28:10.428Z,20.62
2022-08-11T03:30:51.038Z,21.46
2022-08-11T03:33:44.297Z,20.25
2022-08-11T03:37:14.911Z,20.90
2022-08-11T03:39:55.545Z,20.16
2022-08-11T03:42:41.538Z,20.08
2022-08-11T03:45:37.425Z,20.46
2022-08-11T03:48:32.241Z,19.78
2022-08-11T03:51:13.259Z,19.95
2022-08-11T03:54:17.180Z,19.87
2022-08-11T03:57:00.708Z,19.64
2022-08-11T03:59:41.560Z,19.39
2022-08-11T04:02:22.052Z,19.54
2022-08-11T04:05:21.018Z,19.61
2022-08-11T04:08:35.655Z,19.02
2022-08-11T04:11:28.725Z,19.77
2022-08-11T04:14:49.218Z,19.42
2022-08-11T04:17:35.891Z,19.96
2022-08-11T04:20:30.260Z,19.68
2022-08-11T04:24:35.528Z,20.10
2022-08-11T04:26:35.897Z,19.57
2022-08-11T04:29:25.031Z,20.45
2022-08-11T04:32:32.175Z,20.64
2022-08-11T04:35:17.701Z,20.84
2022-08-11T04:38:03.938Z,21.23
2022-08-11T04:40:50.520Z,21.74
2022-08-11T04:44:06.351Z,21.84
2022-08-11T04:46:48.490Z,22.13
2022-08-11T04:49:59.641Z,22.46
2022-08-11T04:53:01.919Z,22.33
2022-08-11T04:56:10.312Z,23.06
2022-08-11T04:59:12.270Z,22.98
2022-08-11T05:02:19.062Z,23.50
2022-08-11T05:05:18.300Z,23.17
2022-08-11T05:08:10.789Z,23.34
2022-08-11T05:10:54.409Z,23.40
2022-08-11T05:13:49.660Z,24.46
2022-08-11T05:16:48.639Z,24.57
2022-08-11T05:19:39.448Z,24.69
2022-08-11T05:22:32.564Z,24.66
2022-08-11T05:26:45.270Z,24.18
2022-08-11T05:28:54.129Z,24.63
2022-08-11T05:31:51.219Z,25.24
2022-08-11T05:34:53.338Z,26.09
2022-08-11T05:37:30.173Z,26.10
2022-08-11T05:40:25.053Z,26.69
2022-08-11T05:43:18.579Z,26.82
2022-08-11T05:46:16.310Z,26.81
2022-08-11T05:49:02.642Z,26.44
2022-08-11T05:52:05.738Z,27.37
2022-08-11T05:55:05.376Z,27.17
2022-08-11T05:57:45.479Z,27.40
2022-08-11T06:00:19.655Z,27.82
2022-08-11T06:02:55.566Z,27.55
2022-08-11T06:05:38.533Z,27.42
2022-08-11T06:08:15.370Z,27.32
2022-08-11T06:10:45.349Z,27.92
2022-08-11T06:13:17.772Z,27.51
2022-08-11T06:15:48.882Z,27.65
2022-08-11T06:18:17.650Z,27.30
2022-08-11T06:20:56.543Z,26.91
2022-08-11T06:23:32.009Z,26.71
2022-08-11T06:26:00.518Z,27.89
2022-08-11T06:28:34.170Z,27.56
2022-08-11T06:31:03.880Z,28.33
2022-08-11T06:33:55.607Z,28.72
2022-08-11T06:36:35.072Z,28.48
2022-08-11T06:39:29.702Z,27.08
2022-08-11T06:42:07.159Z,27.28
2022-08-11T06:44:44.061Z,26.61
2022-08-11T06:47:13.538Z,27.40
2022-08-11T06:50:05.249Z,27.67
2022-08-11T06:52:36.472Z,27.73
2022-08-11T06:55:55.596Z,27.59
2022-08-11T06:58:18.498Z,29.04
2022-08-11T07:00:48.689Z,28.31
2022-08-11T07:03:18.191Z,28.82
2022-08-11T07:05:56.498Z,28.26
2022-08-11T07:09:01.231Z,28.66
2022-08-11T07:12:22.220Z,29.36
2022-08-11T07:15:13.091Z,28.71
2022-08-11T07:17:49.667Z,29.32
2022-08-11T07:20:36.701Z,29.83
2022-08-11T07:23:26.229Z,30.47
2022-08-11T07:26:13.047Z,29.96
2022-08-11T07:28:59.092Z,30.37
2022-08-11T07:31:36.956Z,30.22
2022-08-11T07:34:20.378Z,30.23
2022-08-11T07:37:01.206Z,29.55
2022-08-11T07:39:32.701Z,31.07
2022-08-11T07:42:06.741Z,29.54
2022-08-11T07:44:55.501Z,29.97
2022-08-11T07:47:41.788Z,31.41
2022-08-11T07:50:28.840Z,30.79
2022-08-11T07:53:00.352Z,32.29
2022-08-11T07:55:51.114Z,32.08
2022-08-11T07:58:44.080Z,31.86
2022-08-11T08:01:39.070Z,32.79
2022-08-11T08:04:27.749Z,32.71
2022-08-11T08:07:15.330Z,32.01
2022-08-11T08:10:02.370Z,31.77
2022-08-11T08:12:49.643Z,31.89
2022-08-11T08:15:37.044Z,32.17
2022-08-11T08:18:20.671Z,31.93
2022-08-11T08:20:55.741Z,32.04
2022-08-11T08:23:35.439Z,32.48
2022-08-11T08:26:27.202Z,32.45
2022-08-11T08:29:16.251Z,31.07
2022-08-11T08:31:45.359Z,31.62
2022-08-11T08:34:13.404Z,31.97
2022-08-11T08:36:44.551Z,32.16
2022-08-11T08:39:13.844Z,31.66
2022-08-11T08:41:43.042Z,31.08
2022-08-11T08:47:02.024Z,30.97
2022-08-11T08:49:51.250Z,31.51
2022-08-11T08:52:30.921Z,31.19
2022-08-11T08:55:03.870Z,31.48
2022-08-11T08:57:38.859Z,31.70
2022-08-11T09:00:12.509Z,32.93
2022-08-11T09:02:41.651Z,32.42
2022-08-11T09:05:10.489Z,31.88
2022-08-11T09:07:40.642Z,31.94
2022-08-11T09:10:11.610Z,32.05
2022-08-11T09:12:42.552Z,31.91
2022-08-11T09:15:12.420Z,32.11
2022-08-11T09:17:41.988Z,32.16
2022-08-11T09:20:20.471Z,31.94
2022-08-11T09:26:16.663Z,32.34
2022-08-11T09:28:45.908Z,31.54
2022-08-11T09:31:15.450Z,32.55
2022-08-11T09:33:44.169Z,32.34
2022-08-11T09:36:32.044Z,32.78
2022-08-11T09:39:19.852Z,33.22
2022-08-11T09:42:01.585Z,33.53
2022-08-11T09:44:53.270Z,32.78
2022-08-11T09:47:29.108Z,32.86
2022-08-11T09:50:02.685Z,33.30
2022-08-11T09:52:52.199Z,33.41
2022-08-11T09:55:28.830Z,33.38
2022-08-11T09:58:41.807Z,33.49
2022-08-11T10:01:05.569Z,33.85
2022-08-11T10:03:40.298Z,33.63
2022-08-11T10:06:34.457Z,32.47
2022-08-11T10:09:05.451Z,32.24
2022-08-11T10:11:35.330Z,31.96
2022-08-11T10:14:33.406Z,31.28
2022-08-11T10:17:08.502Z,29.67
2022-08-11T10:19:38.125Z,29.99
2022-08-11T10:22:27.619Z,30.12
2022-08-11T10:25:15.442Z,30.94
2022-08-11T10:28:18.421Z,31.74
2022-08-11T10:31:05.740Z,31.64
2022-08-11T10:34:07.488Z,32.82
2022-08-11T10:36:43.490Z,32.45
2022-08-11T10:39:18.107Z,31.15
2022-08-11T10:42:12.157Z,31.89
2022-08-11T10:44:48.474Z,31.17
2022-08-11T10:47:35.454Z,30.97
2022-08-11T10:50:26.730Z,30.41
2022-08-11T10:53:15.341Z,30.46
2022-08-11T10:58:51.600Z,30.82
2022-08-11T11:01:30.987Z,32.31
2022-08-11T11:04:02.623Z,31.87
2022-08-11T11:06:45.489Z,30.99
2022-08-11T11:09:32.803Z,32.24
2022-08-11T11:12:30.874Z,32.53
2022-08-11T11:15:18.114Z,33.09
2022-08-11T11:17:57.788Z,32.41
2022-08-11T11:20:34.696Z,31.65
2022-08-11T11:23:20.329Z,30.50
2022-08-11T11:26:27.502Z,30.95
2022-08-11T11:29:10.593Z,30.35
2022-08-11T11:32:15.705Z,30.05
2022-08-11T11:35:01.612Z,29.21
2022-08-11T11:37:35.754Z,30.34
2022-08-11T11:40:15.469Z,31.15
2022-08-11T11:42:47.249Z,32.00
2022-08-11T11:45:22.696Z,32.19
2022-08-11T11:47:55.567Z,32.31
2022-08-11T11:50:25.775Z,31.21
2022-08-11T11:53:04.218Z,30.80
2022-08-11T11:55:32.350Z,30.48
2022-08-11T11:58:22.042Z,31.44
2022-08-11T12:01:10.259Z,31.15
2022-08-11T12:03:40.066Z,30.97
2022-08-11T12:06:09.091Z,30.65
2022-08-11T12:08:37.600Z,31.05
2022-08-11T12:11:26.830Z,30.82
2022-08-11T12:13:57.530Z,30.19
2022-08-11T12:16:34.727Z,30.26
2022-08-11T12:19:08.317Z,30.80
2022-08-11T12:21:37.491Z,30.58
2022-08-11T12:24:29.450Z,31.52
2022-08-11T12:27:18.272Z,31.95
2022-08-11T12:30:08.625Z,32.42
2022-08-11T12:32:40.216Z,32.36
2022-08-11T12:35:08.776Z,32.95
2022-08-11T12:37:45.453Z,32.17
2022-08-11T12:40:42.160Z,31.21
2022-08-11T12:43:41.387Z,31.01
2022-08-11T12:46:38.872Z,30.17
2022-08-11T12:49:32.552Z,31.00
2022-08-11T12:52:14.914Z,30.96
2022-08-11T12:55:00.151Z,30.74
2022-08-11T12:57:50.686Z,30.63
2022-08-11T13:00:38.253Z,30.58
2022-08-11T13:03:27.599Z,30.63
2022-08-11T13:06:02.887Z,30.41
2022-08-11T13:08:35.608Z,30.65
2022-08-11T13:11:22.973Z,30.91
2022-08-11T13:13:57.172Z,31.27
2022-08-11T13:16:53.020Z,32.07
2022-08-11T13:19:21.639Z,32.42
2022-08-11T13:21:50.492Z,32.29
2022-08-11T13:24:19.281Z,31.13
2022-08-11T13:26:50.107Z,31.31
2022-08-11T13:29:23.571Z,31.62
2022-08-11T13:31:53.462Z,31.92
2022-08-11T13:34:23.692Z,31.49
2022-08-11T13:36:53.468Z,30.50
2022-08-11T13:39:27.355Z,31.02
2022-08-11T13:41:57.061Z,31.26
2022-08-11T13:44:27.624Z,31.04
2022-08-11T13:47:04.736Z,30.89
2022-08-11T13:49:36.025Z,30.89
2022-08-11T13:52:13.271Z,30.69
2022-08-11T13:54:42.582Z,30.62
2022-08-11T13:57:13.837Z,30.30
2022-08-11T14:00:12.226Z,30.34
2022-08-11T14:02:43.943Z,30.34
2022-08-11T14:05:15.985Z,30.50
2022-08-11T14:07:52.791Z,30.18
2022-08-11T14:10:22.422Z,29.92
2022-08-11T14:13:13.130Z,29.53
2022-08-11T14:15:44.750Z,29.38
2022-08-11T14:18:21.678Z,29.15
2022-08-11T14:21:12.183Z,29.84
2022-08-11T14:23:43.198Z,28.36
2022-08-11T14:26:24.026Z,28.93
2022-08-11T14:29:02.562Z,29.69
2022-08-11T14:31:32.532Z,30.12
2022-08-11T14:34:05.961Z,29.18
2022-08-11T14:36:45.503Z,30.41
2022-08-11T14:39:17.422Z,29.83
2022-08-11T14:42:16.251Z,30.46
2022-08-11T14:45:20.322Z,30.25
2022-08-11T14:47:53.190Z,29.93
2022-08-11T14:50:25.611Z,29.34
2022-08-11T14:52:57.251Z,29.33
2022-08-11T14:55:46.293Z,29.45
2022-08-11T14:58:18.763Z,29.39
2022-08-11T15:00:47.680Z,28.71
2022-08-11T15:03:15.948Z,28.76
2022-08-11T15:06:02.710Z,28.89
2022-08-11T15:08:54.904Z,28.91
2022-08-11T15:11:50.771Z,28.49
2022-08-11T15:14:39.640Z,29.02
2022-08-11T15:17:09.916Z,29.06
2022-08-11T15:20:00.780Z,29.71
2022-08-11T15:22:47.729Z,29.73
2022-08-11T15:25:15.872Z,28.72
2022-08-11T15:28:03.203Z,28.76
2022-08-11T15:30:50.567Z,29.18
2022-08-11T15:33:38.723Z,29.32
2022-08-11T15:36:28.020Z,29.54
2022-08-11T15:38:59.209Z,29.52
2022-08-11T15:42:04.190Z,28.99
2022-08-11T15:45:02.605Z,28.71
2022-08-11T15:47:38.360Z,28.76
2022-08-11T15:50:12.040Z,28.82
2022-08-11T15:52:49.560Z,28.64
2022-08-11T15:55:17.858Z,28.99
2022-08-11T15:58:06.499Z,28.94
2022-08-11T16:00:59.004Z,28.83
2022-08-11T16:04:07.562Z,28.41
2022-08-11T16:06:49.287Z,28.35
2022-08-11T16:09:25.361Z,28.23
2022-08-11T16:11:59.042Z,28.22
2022-08-11T16:14:46.968Z,28.17
2022-08-11T16:17:17.669Z,28.22
2022-08-11T16:19:47.169Z,28.39
2022-08-11T16:22:17.874Z,28.30
2022-08-11T16:27:06.208Z,28.04
2022-08-11T16:27:41.322Z,27.94
2022-08-11T16:30:10.830Z,27.88
2022-08-11T16:32:40.339Z,28.07
2022-08-11T16:35:30.141Z,27.77
2022-08-11T16:38:18.520Z,27.98
2022-08-11T16:40:47.703Z,28.11
2022-08-11T16:43:37.508Z,27.83
2022-08-11T16:46:19.517Z,28.01
2022-08-11T16:48:49.808Z,27.78
2022-08-11T16:51:20.978Z,27.68
2022-08-11T16:54:03.969Z,27.24
2022-08-11T16:56:43.095Z,27.45
2022-08-11T16:59:19.678Z,27.54
2022-08-11T17:01:47.581Z,27.47
2022-08-11T17:05:02.378Z,27.31
2022-08-11T17:07:49.442Z,27.34
2022-08-11T17:11:03.786Z,27.48
2022-08-11T17:13:44.022Z,27.36
2022-08-11T17:16:15.090Z,27.47
2022-08-11T17:18:45.792Z,27.09
2022-08-11T17:21:21.201Z,26.69
2022-08-11T17:23:55.262Z,27.27
2022-08-11T17:26:57.268Z,27.00
2022-08-11T17:29:33.680Z,27.30
2022-08-11T17:32:57.289Z,27.28
2022-08-11T17:35:33.320Z,26.87
2022-08-11T17:38:19.460Z,26.69
2022-08-11T17:41:18.465Z,25.97
2022-08-11T17:44:12.179Z,25.55
2022-08-11T17:47:05.248Z,25.07
2022-08-11T17:49:37.931Z,24.74
2022-08-11T17:52:25.649Z,24.33
2022-08-11T17:55:13.661Z,24.46
2022-08-11T17:58:00.493Z,24.25
2022-08-11T18:00:29.593Z,23.84
2022-08-11T18:03:17.888Z,23.94
2022-08-11T18:05:47.368Z,24.02
2022-08-11T18:08:35.169Z,23.77
2022-08-11T18:12:06.545Z,23.70
2022-08-11T18:14:30.952Z,23.97
2022-08-11T18:17:17.220Z,23.65
2022-08-11T18:20:04.029Z,23.36
2022-08-11T18:22:52.761Z,23.73
2022-08-11T18:25:45.354Z,23.45
2022-08-11T18:28:34.768Z,24.06
2022-08-11T18:31:22.465Z,23.95
2022-08-11T18:34:13.281Z,24.05
2022-08-11T18:37:07.011Z,23.84
2022-08-11T18:39:56.829Z,23.73
2022-08-11T18:42:43.903Z,23.62
2022-08-11T18:45:30.946Z,23.64
2022-08-11T18:48:34.169Z,23.46
2022-08-11T18:51:30.401Z,23.69
2022-08-11T18:54:26.735Z,23.55
2022-08-11T18:57:15.700Z,23.64
2022-08-11T19:00:03.498Z,23.58
2022-08-11T19:02:51.382Z,23.58
2022-08-11T19:06:33.773Z,23.54
2022-08-11T19:08:49.054Z,23.63
2022-08-11T19:11:36.527Z,23.81
2022-08-11T19:14:31.328Z,23.91
2022-08-11T19:17:45.125Z,23.71
2022-08-11T19:20:30.919Z,23.62
2022-08-11T19:23:18.249Z,24.17
2022-08-11T19:26:05.171Z,24.41
2022-08-11T19:28:53.229Z,23.78
2022-08-11T19:31:44.357Z,23.62
2022-08-11T19:34:35.499Z,23.55
2022-08-11T19:37:25.217Z,23.60
2022-08-11T19:40:16.701Z,23.55
2022-08-11T19:43:04.150Z,23.58
2022-08-11T19:46:05.058Z,23.56
2022-08-11T19:48:51.830Z,23.65
2022-08-11T19:51:39.350Z,23.69
2022-08-11T19:54:26.448Z,23.45
2022-08-11T19:57:16.310Z,23.53
2022-08-11T20:00:03.182Z,23.66
2022-08-11T20:02:50.760Z,23.58
2022-08-11T20:05:37.906Z,23.21
2022-08-11T20:08:42.400Z,23.38
2022-08-11T20:11:30.915Z,23.22
2022-08-11T20:14:18.240Z,23.42
2022-08-11T20:17:05.442Z,23.62
2022-08-11T20:19:57.204Z,22.68
2022-08-11T20:22:45.940Z,23.43
2022-08-11T20:25:33.423Z,23.25
2022-08-11T20:28:21.782Z,23.00
2022-08-11T20:31:09.632Z,23.18
2022-08-11T20:33:57.392Z,23.81
2022-08-11T20:36:47.605Z,22.40
2022-08-11T20:39:43.556Z,22.75
2022-08-11T20:42:30.931Z,22.85
2022-08-11T20:45:23.569Z,22.48
2022-08-11T20:48:15.131Z,22.15
2022-08-11T20:51:06.034Z,22.38
2022-08-11T20:53:58.930Z,22.12
2022-08-11T20:56:53.770Z,22.31
2022-08-11T20:59:49.450Z,22.45
2022-08-11T21:02:44.691Z,22.15
2022-08-11T21:06:09.625Z,22.15
2022-08-11T21:08:41.846Z,21.74
2022-08-11T21:11:29.370Z,21.46
2022-08-11T21:14:16.481Z,21.58
2022-08-11T21:17:25.941Z,21.33
2022-08-11T21:20:20.744Z,21.56
2022-08-11T21:23:23.732Z,21.68
2022-08-11T21:26:17.671Z,21.49
2022-08-11T21:29:04.594Z,21.82
2022-08-11T21:31:52.791Z,21.29
2022-08-11T21:34:41.022Z,21.21
2022-08-11T21:37:29.190Z,21.42
2022-08-11T21:40:18.350Z,21.55
2022-08-11T21:43:07.472Z,21.68
2022-08-11T21:45:56.299Z,21.75
2022-08-11T21:48:45.399Z,22.10
2022-08-11T21:51:31.800Z,22.04
2022-08-11T21:54:18.809Z,22.00
2022-08-11T21:57:06.179Z,22.02
2022-08-11T22:00:19.080Z,22.09
2022-08-11T22:03:06.176Z,22.10
2022-08-11T22:05:53.242Z,22.06
2022-08-11T22:08:39.962Z,21.80
2022-08-11T22:11:31.827Z,21.85
2022-08-11T22:14:20.650Z,22.14
2022-08-11T22:17:07.095Z,21.83
2022-08-11T22:19:55.893Z,21.88
2022-08-11T22:22:52.127Z,21.74
2022-08-11T22:25:51.585Z,21.69
2022-08-11T22:28:40.672Z,21.92
2022-08-11T22:31:27.861Z,21.52
2022-08-11T22:34:14.141Z,21.81
2022-08-11T22:37:00.669Z,21.08
2022-08-11T22:39:59.742Z,21.26
2022-08-11T22:42:51.366Z,21.57
2022-08-11T22:45:38.800Z,21.07
2022-08-11T22:48:26.480Z,21.33
2022-08-11T22:51:13.841Z,20.88
2022-08-11T22:54:02.110Z,20.92
2022-08-11T22:56:49.720Z,20.90
2022-08-11T22:59:38.240Z,20.83
2022-08-11T23:02:25.732Z,20.81
2022-08-11T23:05:13.062Z,21.00
2022-08-11T23:08:00.420Z,20.84
2022-08-11T23:10:47.165Z,21.10
2022-08-11T23:13:34.502Z,20.75
2022-08-11T23:16:21.650Z,20.25
2022-08-11T23:19:08.639Z,21.21
2022-08-11T23:21:56.248Z,20.76
2022-08-11T23:24:44.831Z,20.54
2022-08-11T23:27:33.081Z,20.35
2022-08-11T23:30:20.639Z,20.18
2022-08-11T23:33:11.930Z,20.33
2022-08-11T23:36:04.724Z,19.63
2022-08-11T23:38:52.094Z,19.88
2022-08-11T23:41:39.120Z,19.79
2022-08-11T23:44:27.162Z,19.95
2022-08-11T23:47:15.459Z,20.22
2022-08-11T23:50:03.260Z,20.59
2022-08-11T23:52:49.839Z,20.22
2022-08-11T23:55:39.990Z,20.48
2022-08-11T23:58:26.882Z,20.24
